createdAt,value
2023-02-13T00:01:38.592Z,12.30
2023-02-13T00:04:32.351Z,13.10
2023-02-13T00:07:26.227Z,11.50
2023-02-13T00:10:20.504Z,13.10
2023-02-13T00:13:14.513Z,12.50
2023-02-13T00:16:08.812Z,12.60
2023-02-13T00:19:01.971Z,12.40
2023-02-13T00:21:55.961Z,13.00
2023-02-13T00:24:49.864Z,13.90
2023-02-13T00:27:43.863Z,12.20
2023-02-13T00:30:37.032Z,13.80
2023-02-13T00:33:30.725Z,14.20
2023-02-13T00:36:25.602Z,12.50
2023-02-13T00:39:19.044Z,12.30
2023-02-13T00:42:12.867Z,11.50
2023-02-13T00:45:07.946Z,14.40
2023-02-13T00:48:01.142Z,11.60
2023-02-13T00:50:55.343Z,13.20
2023-02-13T00:53:49.396Z,12.30
2023-02-13T00:56:43.117Z,15.60
2023-02-13T00:59:36.837Z,14.80
2023-02-13T01:02:30.551Z,13.70
2023-02-13T01:05:24.274Z,13.70
2023-02-13T01:08:18.611Z,12.40
2023-02-13T01:11:12.323Z,13.60
2023-02-13T01:14:06.067Z,12.80
2023-02-13T01:16:59.841Z,12.50
2023-02-13T01:19:53.542Z,14.10
2023-02-13T01:22:47.354Z,12.90
2023-02-13T01:25:43.531Z,11.30
2023-02-13T01:28:36.682Z,13.60
2023-02-13T01:31:30.684Z,11.90
2023-02-13T01:34:24.532Z,13.10
2023-02-13T01:37:19.178Z,12.70
2023-02-13T01:40:15.013Z,14.90
2023-02-13T01:43:09.780Z,14.70
2023-02-13T01:46:04.879Z,15.50
2023-02-13T01:48:59.450Z,14.50
2023-02-13T01:51:53.435Z,14.10
2023-02-13T01:54:47.354Z,14.10
2023-02-13T01:57:41.953Z,15.00
2023-02-13T02:00:35.812Z,15.40
2023-02-13T02:03:32.772Z,14.00
2023-02-13T02:06:29.566Z,14.40
2023-02-13T02:09:24.016Z,14.10
2023-02-13T02:12:22.254Z,13.50
2023-02-13T02:15:15.420Z,13.10
2023-02-13T02:18:15.102Z,14.70
2023-02-13T02:21:39.839Z,12.50
2023-02-13T02:25:03.478Z,12.20
2023-02-13T02:28:27.913Z,9.30
2023-02-13T02:31:29.583Z,8.50
2023-02-13T02:34:27.114Z,8.60
2023-02-13T02:37:28.679Z,8.20
2023-02-13T02:40:27.369Z,8.60
2023-02-13T02:43:29.680Z,8.70
2023-02-13T02:46:28.193Z,8.00
2023-02-13T02:49:39.506Z,9.30
2023-02-13T02:52:40.790Z,9.00
2023-02-13T02:55:38.360Z,9.10
2023-02-13T02:58:51.972Z,10.20
2023-02-13T03:02:03.636Z,9.50
2023-02-13T03:05:15.812Z,9.80
2023-02-13T03:08:09.579Z,7.80
2023-02-13T03:11:20.879Z,9.30
2023-02-13T03:14:16.255Z,9.00
2023-02-13T03:17:29.585Z,8.00
2023-02-13T03:20:43.721Z,9.00
2023-02-13T03:23:44.587Z,8.10
2023-02-13T03:26:50.580Z,8.00
2023-02-13T03:33:00.807Z,7.90
2023-02-13T03:36:15.275Z,8.40
2023-02-13T03:39:12.035Z,8.30
2023-02-13T03:42:07.198Z,9.30
2023-02-13T03:45:19.451Z,7.80
2023-02-13T03:48:27.062Z,9.30
2023-02-13T03:51:23.290Z,7.90
2023-02-13T03:54:19.605Z,7.60
2023-02-13T04:00:23.502Z,7.10
2023-02-13T04:03:20.399Z,9.10
2023-02-13T04:06:14.097Z,9.20
2023-02-13T04:09:07.163Z,9.80
2023-02-13T04:12:05.579Z,8.40
2023-02-13T04:15:01.038Z,7.80
2023-02-13T04:17:56.861Z,8.20
2023-02-13T04:20:49.969Z,8.10
2023-02-13T04:23:43.679Z,8.60
2023-02-13T04:26:38.982Z,8.80
2023-02-13T04:29:33.058Z,10.10
2023-02-13T04:32:26.893Z,8.50
2023-02-13T04:35:20.638Z,8.00
2023-02-13T04:38:14.366Z,9.60
2023-02-13T04:41:08.247Z,8.50
2023-02-13T04:44:02.001Z,9.20
2023-02-13T04:46:55.765Z,9.50
2023-02-13T04:49:49.552Z,8.60
2023-02-13T04:52:43.326Z,8.80
2023-02-13T04:55:37.259Z,8.00
2023-02-13T04:58:31.103Z,7.70
2023-02-13T05:01:24.884Z,7.80
2023-02-13T05:04:18.072Z,10.30
2023-02-13T05:07:11.855Z,8.20
2023-02-13T05:10:06.281Z,7.50
2023-02-13T05:13:00.612Z,11.00
2023-02-13T05:15:54.481Z,8.00
2023-02-13T05:18:48.480Z,10.20
2023-02-13T05:21:59.964Z,9.40
2023-02-13T05:24:53.882Z,8.80
2023-02-13T05:27:47.794Z,7.70
2023-02-13T05:30:41.650Z,9.00
2023-02-13T05:33:35.405Z,11.10
2023-02-13T05:36:29.251Z,11.50
2023-02-13T05:39:23.059Z,15.40
2023-02-13T05:42:16.952Z,18.90
2023-02-13T05:45:11.668Z,17.70
2023-02-13T05:48:05.352Z,18.00
2023-02-13T05:50:59.459Z,22.20
2023-02-13T05:53:54.234Z,22.50
2023-02-13T05:56:48.060Z,20.60
2023-02-13T05:59:41.939Z,19.20
2023-02-13T06:02:35.766Z,21.60
2023-02-13T06:05:29.738Z,20.70
2023-02-13T06:08:23.601Z,22.60
2023-02-13T06:11:17.528Z,20.20
2023-02-13T06:14:11.866Z,18.60
2023-02-13T06:17:05.635Z,19.30
2023-02-13T06:19:59.588Z,16.20
2023-02-13T06:22:53.505Z,17.60
2023-02-13T06:25:47.289Z,20.40
2023-02-13T06:28:41.252Z,21.10
2023-02-13T06:31:35.219Z,16.80
2023-02-13T06:34:29.418Z,18.70
2023-02-13T06:37:23.356Z,18.80
2023-02-13T06:40:17.788Z,21.70
2023-02-13T06:43:11.851Z,23.30
2023-02-13T06:46:09.085Z,23.30
2023-02-13T06:49:02.550Z,29.30
2023-02-13T06:51:55.930Z,24.00
2023-02-13T06:54:49.753Z,23.60
2023-02-13T06:57:44.053Z,30.50
2023-02-13T07:00:38.497Z,31.50
2023-02-13T07:03:32.176Z,24.90
2023-02-13T07:06:26.027Z,24.60
2023-02-13T07:09:19.278Z,27.70
2023-02-13T07:12:13.030Z,26.50
2023-02-13T07:15:08.878Z,26.60
2023-02-13T07:18:02.745Z,22.00
2023-02-13T07:20:55.857Z,25.60
2023-02-13T07:23:49.941Z,22.00
2023-02-13T07:26:43.752Z,27.20
2023-02-13T07:29:38.055Z,24.80
2023-02-13T07:32:31.338Z,18.90
2023-02-13T07:35:25.091Z,21.90
2023-02-13T07:38:19.201Z,21.00
2023-02-13T07:41:11.691Z,25.30
2023-02-13T07:44:05.519Z,25.80
2023-02-13T07:47:01.226Z,24.50
2023-02-13T07:49:55.817Z,23.10
2023-02-13T07:52:56.417Z,22.40
2023-02-13T07:55:49.630Z,24.00
2023-02-13T07:58:44.804Z,25.00
2023-02-13T08:01:38.556Z,23.90
2023-02-13T08:04:32.821Z,27.40
2023-02-13T08:07:26.149Z,26.10
2023-02-13T08:10:38.434Z,27.40
2023-02-13T08:13:31.816Z,22.90
2023-02-13T08:16:25.742Z,27.70
2023-02-13T08:19:19.870Z,22.30
2023-02-13T08:22:13.246Z,23.70
2023-02-13T08:25:09.052Z,20.00
2023-02-13T08:28:02.343Z,25.00
2023-02-13T08:30:56.224Z,21.10
2023-02-13T08:33:49.730Z,21.40
2023-02-13T08:36:43.661Z,19.70
2023-02-13T08:39:37.597Z,18.70
2023-02-13T08:42:31.489Z,19.80
2023-02-13T08:45:25.471Z,19.90
2023-02-13T08:48:19.345Z,22.10
2023-02-13T08:51:13.823Z,22.00
2023-02-13T08:54:06.406Z,21.40
2023-02-13T08:57:00.182Z,24.10
2023-02-13T08:59:53.966Z,23.90
2023-02-13T09:02:47.970Z,26.80
2023-02-13T09:05:41.864Z,28.80
2023-02-13T09:08:37.209Z,27.70
2023-02-13T09:11:31.129Z,30.70
2023-02-13T09:14:25.193Z,29.40
2023-02-13T09:17:19.760Z,30.40
2023-02-13T09:20:15.510Z,33.40
2023-02-13T09:23:08.833Z,25.50
2023-02-13T09:26:03.200Z,22.40
2023-02-13T09:28:57.658Z,25.10
2023-02-13T09:31:51.562Z,25.70
2023-02-13T09:34:45.686Z,31.40
2023-02-13T09:37:40.076Z,26.90
2023-02-13T09:40:36.339Z,30.70
2023-02-13T09:46:24.607Z,37.40
2023-02-13T09:49:20.382Z,34.60
2023-02-13T09:55:15.635Z,39.40
2023-02-13T09:58:16.195Z,33.70
2023-02-13T10:01:27.419Z,26.20
2023-02-13T10:04:32.712Z,29.60
2023-02-13T10:07:29.481Z,30.70
2023-02-13T10:10:25.767Z,32.70
2023-02-13T10:13:36.592Z,35.20
2023-02-13T10:16:34.659Z,33.90
2023-02-13T10:19:35.560Z,38.10
2023-02-13T10:22:32.116Z,31.80
2023-02-13T10:25:27.325Z,38.80
2023-02-13T10:28:24.756Z,37.00
2023-02-13T10:31:18.944Z,33.80
2023-02-13T10:34:17.074Z,36.50
2023-02-13T10:37:16.752Z,34.70
2023-02-13T10:40:14.089Z,34.50
2023-02-13T10:43:09.426Z,31.60
2023-02-13T10:46:11.681Z,33.20
2023-02-13T10:49:23.285Z,31.30
2023-02-13T10:52:22.617Z,34.90
2023-02-13T10:55:32.483Z,29.90
2023-02-13T10:58:29.873Z,30.30
2023-02-13T11:01:31.329Z,32.50
2023-02-13T11:04:24.159Z,38.00
2023-02-13T11:07:19.577Z,31.30
2023-02-13T11:10:19.270Z,38.50
2023-02-13T11:13:19.800Z,43.10
2023-02-13T11:16:13.926Z,37.00
2023-02-13T11:19:07.953Z,34.50
2023-02-13T11:22:05.671Z,34.60
2023-02-13T11:25:00.911Z,34.00
2023-02-13T11:28:05.847Z,39.00
2023-02-13T11:31:11.384Z,38.50
2023-02-13T11:34:25.113Z,39.20
2023-02-13T11:37:21.195Z,37.00
2023-02-13T11:40:32.396Z,33.20
2023-02-13T11:43:28.825Z,35.20
2023-02-13T11:49:20.086Z,35.10
2023-02-13T11:52:26.342Z,29.20
2023-02-13T11:55:30.406Z,39.40
2023-02-13T11:58:28.584Z,35.50
2023-02-13T12:01:31.736Z,35.90
2023-02-13T12:04:25.133Z,32.40
2023-02-13T12:07:21.913Z,30.60
2023-02-13T12:10:22.446Z,32.90
2023-02-13T12:13:22.043Z,32.10
2023-02-13T12:16:18.437Z,38.00
2023-02-13T12:19:14.898Z,39.30
2023-02-13T12:22:22.082Z,40.20
2023-02-13T12:25:35.216Z,33.90
2023-02-13T12:28:33.700Z,40.70
2023-02-13T12:31:55.284Z,28.80
2023-02-13T12:35:20.168Z,31.80
2023-02-13T12:38:20.360Z,36.10
2023-02-13T12:41:21.470Z,34.30
2023-02-13T12:44:28.252Z,30.20
2023-02-13T12:47:23.146Z,32.70
2023-02-13T12:50:30.621Z,34.00
2023-02-13T12:53:30.864Z,33.60
2023-02-13T12:56:32.177Z,35.40
2023-02-13T12:59:30.817Z,35.90
2023-02-13T13:02:41.957Z,34.10
2023-02-13T13:05:43.333Z,34.90
2023-02-13T13:08:45.242Z,33.20
2023-02-13T13:11:49.874Z,31.70
2023-02-13T13:14:47.496Z,32.60
2023-02-13T13:17:47.894Z,30.80
2023-02-13T13:20:56.468Z,32.00
2023-02-13T13:23:53.427Z,33.20
2023-02-13T13:26:49.516Z,35.00
2023-02-13T13:29:45.728Z,31.90
2023-02-13T13:32:39.111Z,31.70
2023-02-13T13:35:32.188Z,30.90
2023-02-13T13:38:29.657Z,27.80
2023-02-13T13:41:27.322Z,28.10
2023-02-13T13:44:34.253Z,31.20
2023-02-13T13:47:32.524Z,28.40
2023-02-13T13:50:27.041Z,31.70
2023-02-13T13:53:23.212Z,30.00
2023-02-13T13:59:11.627Z,27.80
2023-02-13T14:02:44.244Z,30.60
2023-02-13T14:05:41.018Z,31.60
2023-02-13T14:09:19.609Z,30.80
2023-02-13T14:12:46.079Z,32.40
2023-02-13T14:15:55.292Z,28.20
2023-02-13T14:18:50.745Z,33.40
2023-02-13T14:21:44.877Z,26.90
2023-02-13T14:24:38.004Z,28.80
2023-02-13T14:27:32.857Z,31.80
2023-02-13T14:30:30.709Z,33.10
2023-02-13T14:33:28.566Z,27.10
2023-02-13T14:36:26.955Z,31.40
2023-02-13T14:39:28.748Z,30.60
2023-02-13T14:42:26.327Z,30.30
2023-02-13T14:45:20.977Z,31.80
2023-02-13T14:48:15.544Z,31.00
2023-02-13T14:51:08.964Z,31.70
2023-02-13T14:54:06.410Z,28.40
2023-02-13T14:57:05.803Z,30.70
2023-02-13T15:00:00.576Z,30.40
2023-02-13T15:02:54.866Z,28.20
2023-02-13T15:05:49.862Z,31.10
2023-02-13T15:08:44.370Z,32.40
2023-02-13T15:11:39.469Z,31.70
2023-02-13T15:14:36.350Z,28.30
2023-02-13T15:17:30.603Z,29.90
2023-02-13T15:20:25.149Z,28.50
2023-02-13T15:23:24.376Z,28.20
2023-02-13T15:26:23.742Z,31.20
2023-02-13T15:29:27.751Z,27.70
2023-02-13T15:32:27.563Z,28.90
2023-02-13T15:35:26.803Z,29.10
2023-02-13T15:38:27.708Z,26.50
2023-02-13T15:41:23.397Z,30.20
2023-02-13T15:44:20.723Z,29.10
2023-02-13T15:47:20.289Z,28.80
2023-02-13T15:50:22.972Z,30.90
2023-02-13T15:53:17.456Z,29.30
2023-02-13T15:56:15.319Z,28.90
2023-02-13T15:59:08.500Z,28.00
2023-02-13T16:02:02.156Z,30.60
2023-02-13T16:04:55.826Z,31.30
2023-02-13T16:07:53.197Z,30.20
2023-02-13T16:10:46.482Z,31.50
2023-02-13T16:13:39.615Z,33.40
2023-02-13T16:16:34.060Z,32.40
2023-02-13T16:19:29.822Z,35.30
2023-02-13T16:22:34.642Z,31.70
2023-02-13T16:25:28.967Z,35.90
2023-02-13T16:28:22.961Z,38.80
2023-02-13T16:31:16.983Z,50.00
2023-02-13T16:34:17.457Z,57.20
2023-02-13T16:37:30.801Z,44.80
2023-02-13T16:40:38.346Z,43.40
2023-02-13T16:43:41.874Z,37.60
2023-02-13T16:46:36.643Z,53.40
2023-02-13T16:49:32.581Z,48.80
2023-02-13T16:52:26.535Z,42.70
2023-02-13T16:55:20.052Z,43.00
2023-02-13T16:58:14.679Z,43.50
2023-02-13T17:01:08.000Z,40.00
2023-02-13T17:04:01.467Z,43.50
2023-02-13T17:06:56.646Z,42.60
2023-02-13T17:09:54.974Z,35.70
2023-02-13T17:12:48.290Z,38.00
2023-02-13T17:15:44.769Z,31.40
2023-02-13T17:18:38.087Z,33.10
2023-02-13T17:21:31.214Z,36.10
2023-02-13T17:24:24.374Z,35.60
2023-02-13T17:27:17.516Z,30.40
2023-02-13T17:30:15.159Z,32.10
2023-02-13T17:33:09.175Z,35.90
2023-02-13T17:36:02.416Z,34.10
2023-02-13T17:38:55.605Z,27.20
2023-02-13T17:41:48.676Z,32.40
2023-02-13T17:44:41.967Z,39.00
2023-02-13T17:47:35.249Z,37.60
2023-02-13T17:50:28.597Z,41.10
2023-02-13T17:53:23.918Z,40.70
2023-02-13T17:56:17.732Z,36.20
2023-02-13T17:59:10.932Z,34.70
2023-02-13T18:02:04.077Z,36.70
2023-02-13T18:04:57.401Z,34.70
2023-02-13T18:07:50.631Z,34.40
2023-02-13T18:10:43.753Z,36.00
2023-02-13T18:13:36.945Z,30.80
2023-02-13T18:16:32.032Z,27.70
2023-02-13T18:19:25.387Z,27.50
2023-02-13T18:22:18.644Z,29.10
2023-02-13T18:25:12.176Z,31.60
2023-02-13T18:28:05.528Z,32.50
2023-02-13T18:30:59.182Z,32.80
2023-02-13T18:33:52.475Z,34.60
2023-02-13T18:36:45.970Z,27.50
2023-02-13T18:39:39.517Z,29.20
2023-02-13T18:42:32.999Z,27.00
2023-02-13T18:45:26.320Z,26.00
2023-02-13T18:48:18.808Z,26.60
2023-02-13T18:51:12.003Z,26.90
2023-02-13T18:54:05.295Z,26.90
2023-02-13T18:56:58.828Z,28.50
2023-02-13T18:59:52.548Z,32.10
2023-02-13T19:02:45.998Z,33.50
2023-02-13T19:05:42.359Z,28.30
2023-02-13T19:11:28.894Z,27.30
2023-02-13T19:14:22.703Z,23.50
2023-02-13T19:17:15.926Z,24.60
2023-02-13T19:20:11.118Z,23.90
2023-02-13T19:23:04.437Z,21.70
2023-02-13T19:25:57.860Z,21.20
2023-02-13T19:28:51.353Z,21.00
2023-02-13T19:31:44.765Z,25.30
2023-02-13T19:34:38.129Z,29.30
2023-02-13T19:37:43.041Z,28.20
2023-02-13T19:40:37.254Z,35.20
2023-02-13T19:43:30.754Z,31.80
2023-02-13T19:46:25.033Z,38.40
2023-02-13T19:49:18.904Z,34.00
2023-02-13T19:52:12.244Z,33.00
2023-02-13T19:55:06.890Z,29.50
2023-02-13T19:58:00.138Z,33.30
2023-02-13T20:00:53.467Z,32.90
2023-02-13T20:03:46.970Z,32.30
2023-02-13T20:06:40.070Z,31.40
2023-02-13T20:09:33.319Z,32.60
2023-02-13T20:12:26.561Z,24.50
2023-02-13T20:15:19.878Z,48.10
2023-02-13T20:18:12.955Z,38.70
2023-02-13T20:21:08.977Z,31.90
2023-02-13T20:24:03.065Z,25.50
2023-02-13T20:26:58.827Z,21.50
2023-02-13T20:29:58.941Z,21.80
2023-02-13T20:32:59.934Z,30.50
2023-02-13T20:35:53.203Z,23.50
2023-02-13T20:38:46.712Z,30.40
2023-02-13T20:41:40.298Z,25.80
2023-02-13T20:44:33.723Z,25.20
2023-02-13T20:47:27.316Z,28.60
2023-02-13T20:50:20.966Z,32.40
2023-02-13T20:53:14.168Z,28.70
2023-02-13T20:56:10.638Z,37.90
2023-02-13T20:59:05.638Z,32.00
2023-02-13T21:01:58.847Z,30.00
2023-02-13T21:04:52.843Z,30.10
2023-02-13T21:07:46.966Z,29.80
2023-02-13T21:10:41.251Z,29.90
2023-02-13T21:13:35.177Z,30.40
2023-02-13T21:16:30.406Z,28.60
2023-02-13T21:19:23.598Z,29.20
2023-02-13T21:22:16.742Z,27.00
2023-02-13T21:25:10.886Z,26.40
2023-02-13T21:28:05.325Z,28.70
2023-02-13T21:30:58.963Z,28.60
2023-02-13T21:33:52.953Z,29.70
2023-02-13T21:36:47.185Z,28.60
2023-02-13T21:39:40.998Z,27.70
2023-02-13T21:42:34.856Z,35.50
2023-02-13T21:45:28.528Z,29.40
2023-02-13T21:48:22.459Z,27.10
2023-02-13T21:51:17.307Z,30.10
2023-02-13T21:54:12.423Z,28.70
2023-02-13T21:57:06.311Z,30.60
2023-02-13T22:00:01.899Z,31.60
2023-02-13T22:02:55.943Z,30.30
2023-02-13T22:05:50.329Z,29.20
2023-02-13T22:08:44.211Z,39.10
2023-02-13T22:11:38.000Z,29.70
2023-02-13T22:14:31.967Z,32.00
2023-02-13T22:17:26.653Z,27.80
2023-02-13T22:20:22.289Z,24.10
2023-02-13T22:23:16.110Z,34.70
2023-02-13T22:26:10.048Z,35.20
2023-02-13T22:29:05.568Z,48.80
2023-02-13T22:32:00.585Z,50.90
2023-02-13T22:34:54.753Z,38.70
2023-02-13T22:37:48.540Z,43.20
2023-02-13T22:40:42.384Z,49.10
2023-02-13T22:43:36.171Z,32.60
2023-02-13T22:46:31.037Z,41.10
2023-02-13T22:49:25.394Z,34.30
2023-02-13T22:52:18.695Z,33.00
2023-02-13T22:55:12.455Z,29.10
2023-02-13T22:58:07.415Z,25.00
2023-02-13T23:01:01.914Z,24.50
2023-02-13T23:03:56.219Z,32.40
2023-02-13T23:06:50.803Z,28.00
2023-02-13T23:09:45.333Z,55.20
2023-02-13T23:12:40.276Z,56.30
2023-02-13T23:15:34.501Z,31.60
2023-02-13T23:18:28.383Z,31.60
2023-02-13T23:21:22.181Z,32.30
2023-02-13T23:24:15.962Z,26.60
2023-02-13T23:27:09.879Z,27.40
2023-02-13T23:30:03.828Z,28.10
2023-02-13T23:32:57.914Z,27.10
2023-02-13T23:35:51.721Z,37.90
2023-02-13T23:38:46.541Z,32.70
2023-02-13T23:41:39.711Z,34.90
2023-02-13T23:44:33.572Z,40.30
2023-02-13T23:47:27.372Z,25.20
2023-02-13T23:50:21.509Z,28.10
2023-02-13T23:53:15.307Z,38.90
2023-02-13T23:56:09.650Z,32.20
2023-02-13T23:59:02.075Z,29.40
